TOURFACTS.DK  
Stats and Facts from Tour de France.

Tour de France 2019 starts in 347 days
  Riders   Stages   Teams   Summits   Yearly  


 
Search by year

After 2018 - Stage 14:
 15000 starters.
  5163 different riders.
  639 teams.
  2246 stages.
  456 restdays.
  441957.60 km.
  5678 abandonnees.


Top 3
GC
Christopher Froome86:20:55
Rigoberto Urán86:21:49
Romain Bardet86:23:15
Climb
Warren Barguil169 pt.
Primoz Roglic80 pt.
Thomas De Gendt64 pt.
Sprint
Michael Matthews359 pt.
André Greipel234 pt.
Edvald Boasson Hagen220 pt.
Youth
Simon Yates86:27:09
Louis Meintjes86:29:15
Emanuel Buchmann86:54:16
Facts from Tour de France 2002
  |   Stages.  |   Stage winners.  |   Days in yellow  |   Average speed.  |   Route.  |   Teams.  |   All riders.  |   Rookies.  |  

  |   Withdrawls.  |   GC.  |   Polka  |   Green  |   White  |   Summits. (In tour)  |   Miscellaneous.  |  

Stage 12 on July 19th. 2002
         Owning:    Lance Armstrong    
Pick a stage:  Pro 1 2 3 4 5 6 7 8 9 10 11 12 13 14 15 16 17 18 19 20
From: Lannemezan    To: Plateau-de-BeilleDist:199.50 km.
Cat: 1Col de Menté/MourtisFRAChristophe Oriol
30 points
 
Cat: 2Col de Portet-d'AspetFRALaurent Jalabert
20 points
 
Cat: 1Col de la CoreFRALaurent Jalabert
30 points
 
Cat: 2Col de PortFRALaurent Jalabert
20 points
 
Cat: HPlateau de BeilleUSALance Armstrong
40 points
 

Average speed for all riders in stage:  31,074 km./hr.
    Place:Name:Team:Time:Km/h:
USALance ArmstrongUSAUS Postal Service06:00:29  +  00:00:00=33,205 
ESPRoberto HerasUSAUS Postal Service06:01:33  +  00:01:04=33,107 
ESPJoseba BelokiESPO.N.C.E.-Eroski06:01:33  +  00:01:04=33,107 
4 COLSantiago BoteroESPKelme-Costa Blanca06:01:40  +  00:01:11=33,097 
5 ESPIgor GonzalezESPO.N.C.E.-Eroski06:01:40  +  00:01:11=33,097 
6 URSRaimondas RumsasITALampre-Daikin06:01:52  +  00:01:23=33,078 
7 ESPCarlos SastreDNKTeam CSC-Tiscali06:02:02  +  00:01:33=33,063 
8 ESPMarcos SerranoESPO.N.C.E.-Eroski06:02:06  +  00:01:37=33,057 
9 ESPÓscar SevillaESPKelme-Costa Blanca06:02:36  +  00:02:07=33,012 
10 KAZAndrei KivilevFRACofidis Credit Par Telephone06:03:08  +  00:02:39=32,963 
11 BELAxel MerckxBELDomo-Farm Frites06:03:16  +  00:02:47=32,951 
12 FRADavid MoncoutiéFRACofidis Credit Par Telephone06:03:16  +  00:02:47=32,951 
13 USALevi LeipheimerNLDRabobank06:03:16  +  00:02:47=32,951 
14 FRAStéphane GoubertFRAJean Delatour06:03:16  +  00:02:47=32,951 
15 ESPFrancisco ManceboESPibanesto.com06:03:46  +  00:03:17=32,906 
16 FRAChristophe MoreauFRACredit Agricole06:03:46  +  00:03:17=32,906 
17 ITADario FrigoITATacconi Sport06:04:01  +  00:03:32=32,883 
18 PORJosé AzevedoESPO.N.C.E.-Eroski06:04:02  +  00:03:33=32,882 
19 ESPJosé Enrique GutierrezESPKelme-Costa Blanca06:04:33  +  00:04:04=32,835 
20 ESPHaimar ZubeldiaESPEuskaltel - Euskadi06:04:50  +  00:04:21=32,810 
21 ESPIsidro NozalESPO.N.C.E.-Eroski06:04:50  +  00:04:21=32,810 
22 ESPUnai OsaESPibanesto.com06:05:03  +  00:04:34=32,790 
23 FRAJean-Cyril RobinFRAfdjeux.com06:05:29  +  00:05:00=32,751 
24 USAKevin LivingstonUSATeam Telekom06:05:47  +  00:05:18=32,724 
25 GERJörg JakscheESPO.N.C.E.-Eroski06:06:10  +  00:05:41=32,690 
26 ITAMassimiliano LelliFRACofidis Credit Par Telephone06:06:15  +  00:05:46=32,683 
27 FRANicolas VogondyFRAfdjeux.com06:06:20  +  00:05:51=32,675 
28 MARRichard VirenqueBELDomo-Farm Frites06:06:20  +  00:05:51=32,675 
29 ESPJosé RubieraUSAUS Postal Service06:07:12  +  00:06:43=32,598 
30 ITAWladimir BelliITAFassa Bortolo06:07:16  +  00:06:47=32,592 
31 ITAIvan BassoITAFassa Bortolo06:07:16  +  00:06:47=32,592 
32 SUILaurent DufauxITAAlessio06:07:16  +  00:06:47=32,592 
33 FRALaurent LefèvreFRAJean Delatour06:07:16  +  00:06:47=32,592 
34 FRASylvain ChavanelFRABonjour06:07:25  +  00:06:56=32,579 
35 ESPSantiago BlancoESPibanesto.com06:07:57  +  00:07:28=32,532 
36 BELChristophe BrandtBELLotto-Adecco06:08:30  +  00:08:01=32,483 
37 DENNicki SørensenDNKTeam CSC-Tiscali06:08:35  +  00:08:06=32,476 
38 USATyler HamiltonDNKTeam CSC-Tiscali06:08:35  +  00:08:06=32,476 
39 NEDMichael BoogerdNLDRabobank06:08:49  +  00:08:20=32,455 
40 POLPiotr WadeckiBELDomo-Farm Frites06:08:49  +  00:08:20=32,455 
41 ESPIñigo ChaurreauFRAAg2r Prevoyance06:08:53  +  00:08:24=32,449 
42 AUTGerhard TrampuschITAMapei-Quick Step06:09:17  +  00:08:48=32,414 
43 USAFloyd LandisUSAUS Postal Service06:09:44  +  00:09:15=32,375 
44 ITAMarzio BruseghinESPibanesto.com06:10:55  +  00:10:26=32,271 
45 FRALaurent BrochardFRAJean Delatour06:10:55  +  00:10:26=32,271 
46 SUIBeat ZbergNLDRabobank06:10:55  +  00:10:26=32,271 
47 ESPIñigo CuestaFRACofidis Credit Par Telephone06:11:33  +  00:11:04=32,216 
48 ITAIvan GottiITAAlessio06:11:41  +  00:11:12=32,205 
49 FRALaurent JalabertDNKTeam CSC-Tiscali06:12:05  +  00:11:36=32,170 
50 FRAFranck RenierFRABonjour06:12:05  +  00:11:36=32,170 
51 USABobby JulichUSATeam Telekom06:12:05  +  00:11:36=32,170 
52 FRAJérôme PineauFRABonjour06:12:05  +  00:11:36=32,170 
53 GERGrischa NiermannNLDRabobank06:12:14  +  00:11:45=32,157 
54 ITAMarco VeloITAFassa Bortolo06:13:16  +  00:12:47=32,068 
55 UKRVolodymir GustovITAFassa Bortolo06:13:16  +  00:12:47=32,068 
56 FRAFrédéric BessyFRACredit Agricole06:13:42  +  00:13:13=32,031 
57 ITAGianluca BortolamiITATacconi Sport06:13:42  +  00:13:13=32,031 
58 RUSAlexandre BotcharovFRAAg2r Prevoyance06:14:21  +  00:13:52=31,975 
59 POLDariusz BaranowskiESPibanesto.com06:14:52  +  00:14:23=31,931 
60 CZETomas KonecnyBELDomo-Farm Frites06:16:16  +  00:15:47=31,813 
61 BELDave BruylandtsBELDomo-Farm Frites06:16:16  +  00:15:47=31,813 
62 RUSGuennadi MikhailovBELLotto-Adecco06:16:16  +  00:15:47=31,813 
63 URSViatcheslav EkimovUSAUS Postal Service06:16:16  +  00:15:47=31,813 
64 ITAAndrea PeronDNKTeam CSC-Tiscali06:17:09  +  00:16:40=31,738 
65 ITACristian MoreniITAAlessio06:17:09  +  00:16:40=31,738 
66 FRAAndy FlickingerFRAAg2r Prevoyance06:17:29  +  00:17:00=31,710 
67 ESPMiguel Angel MartinezITAMapei-Quick Step06:18:39  +  00:18:10=31,612 
68 ESPRoberto LaisekaESPEuskaltel - Euskadi06:19:08  +  00:18:39=31,572 
69 LUXBenoit JoachimUSAUS Postal Service06:24:37  +  00:24:08=31,122 
70 DDRErik ZabelUSATeam Telekom06:24:37  +  00:24:08=31,122 
71 ESPAbraham OlanoESPO.N.C.E.-Eroski06:24:37  +  00:24:08=31,122 
72 GERRolf AldagUSATeam Telekom06:24:37  +  00:24:08=31,122 
73 GERUdo BöltsUSATeam Telekom06:24:37  +  00:24:08=31,122 
74 RUSSerguei IvanovITAFassa Bortolo06:24:37  +  00:24:08=31,122 
75 GERSteffen WesemannUSATeam Telekom06:24:37  +  00:24:08=31,122 
76 ESPBingen FernandezFRACofidis Credit Par Telephone06:24:37  +  00:24:08=31,122 
77 ITAMarco SerpelliniITALampre-Daikin06:24:37  +  00:24:08=31,122 
78 FRAChristophe OriolFRAAg2r Prevoyance06:24:37  +  00:24:08=31,122 
79 ITAGiuseppe GueriniUSATeam Telekom06:24:37  +  00:24:08=31,122 
80 COLVictor Hugo PenaUSAUS Postal Service06:24:37  +  00:24:08=31,122 
81 ESPJavier PascualESPibanesto.com06:24:37  +  00:24:08=31,122 
82 USAGeorge HincapieUSAUS Postal Service06:24:37  +  00:24:08=31,122 
83 RSARobert HunterITAMapei-Quick Step06:24:37  +  00:24:08=31,122 
84 CZEPavel PadrnosUSAUS Postal Service06:24:37  +  00:24:08=31,122 
85 FRAJérôme BernardFRAJean Delatour06:25:51  +  00:25:22=31,022 
86 GERDanilo HondoUSATeam Telekom06:27:44  +  00:27:15=30,872 
87 ESPIban MayoESPEuskaltel - Euskadi06:27:44  +  00:27:15=30,872 
88 ESPDavid EtxebarriaESPEuskaltel - Euskadi06:27:44  +  00:27:15=30,872 
89 FRAAnthony MorinFRACredit Agricole06:27:44  +  00:27:15=30,872 
90 ITAEddy MazzoleniITATacconi Sport06:27:44  +  00:27:15=30,872 
91 BELMario AertsBELLotto-Adecco06:27:44  +  00:27:15=30,872 
92 FRALudovic TurpinFRAAg2r Prevoyance06:27:44  +  00:27:15=30,872 
93 AUSStuart O'GradyFRACredit Agricole06:27:44  +  00:27:15=30,872 
94 BELMarc WautersNLDRabobank06:27:44  +  00:27:15=30,872 
95 GERJens VoigtFRACredit Agricole06:29:36  +  00:29:07=30,724 
96 ESPFrancisco CabelloESPKelme-Costa Blanca06:34:05  +  00:33:36=30,374 
97 BELThierry MarichalBELLotto-Adecco06:35:34  +  00:35:05=30,260 
98 VENUnai EtxebarriaESPEuskaltel - Euskadi06:35:49  +  00:35:20=30,241 
99 ITAAndrea TafiITAMapei-Quick Step06:41:01  +  00:40:32=29,849 
100 HUNLaszlo BodrogiITAMapei-Quick Step06:41:01  +  00:40:32=29,849 
101 NORThor HushovdFRACredit Agricole06:41:01  +  00:40:32=29,849 
102 ESPPedro HorrilloITAMapei-Quick Step06:41:01  +  00:40:32=29,849 
103 URSRaivis BelohvosciksITALampre-Daikin06:41:01  +  00:40:32=29,849 
104 FRAWalter BénéteauFRABonjour06:41:01  +  00:40:32=29,849 
105 NEDServais KnavenBELDomo-Farm Frites06:41:01  +  00:40:32=29,849 
106 ITANicola LodaITAFassa Bortolo06:41:01  +  00:40:32=29,849 
107 BELLudo DierckxsensITALampre-Daikin06:41:01  +  00:40:32=29,849 
108 ESPJosé Angel VidalESPKelme-Costa Blanca06:41:01  +  00:40:32=29,849 
109 ESPDavid LatasaESPibanesto.com06:41:01  +  00:40:32=29,849 
110 BELNico MattanFRACofidis Credit Par Telephone06:41:01  +  00:40:32=29,849 
111 ESPConstantino ZaballaESPKelme-Costa Blanca06:41:01  +  00:40:32=29,849 
112 AUSRobbie McEwenBELLotto-Adecco06:41:01  +  00:40:32=29,849 
113 ESPMikel PraderaESPO.N.C.E.-Eroski06:41:01  +  00:40:32=29,849 
114 FRASébastien HinaultFRACredit Agricole06:41:01  +  00:40:32=29,849 
115 FRAFranck BouyerFRABonjour06:41:01  +  00:40:32=29,849 
116 ITAMauro RadaelliITATacconi Sport06:41:01  +  00:40:32=29,849 
117 FRAChristophe MenginFRAfdjeux.com06:41:01  +  00:40:32=29,849 
118 ITAAlessandro CortinovisITALampre-Daikin06:41:01  +  00:40:32=29,849 
119 FRAEmmanuel MagnienFRABonjour06:41:01  +  00:40:32=29,849 
120 SVKJán SvoradaITALampre-Daikin06:41:01  +  00:40:32=29,849 
121 RUSDenis MenchovESPibanesto.com06:41:01  +  00:40:32=29,849 
122 ITAPaolo BossoniITATacconi Sport06:41:01  +  00:40:32=29,849 
123 ITAFabio BaldatoITAFassa Bortolo06:41:01  +  00:40:32=29,849 
124 FRAAnthony LangellaFRACredit Agricole06:41:01  +  00:40:32=29,849 
125 ESPJosé GomezESPKelme-Costa Blanca06:41:01  +  00:40:32=29,849 
126 BELPaul Van HyfteDNKTeam CSC-Tiscali06:41:01  +  00:40:32=29,849 
127 FRAStéphane AugeFRAJean Delatour06:41:01  +  00:40:32=29,849 
128 NEDAddy EngelsNLDRabobank06:41:01  +  00:40:32=29,849 
129 AUSBradley McGeeFRAfdjeux.com06:41:01  +  00:40:32=29,849 
130 ESPDaniel AtienzaFRACofidis Credit Par Telephone06:41:01  +  00:40:32=29,849 
131 FRACédric VasseurFRACofidis Credit Par Telephone06:41:01  +  00:40:32=29,849 
132 ITAEnrico CassaniBELDomo-Farm Frites06:41:01  +  00:40:32=29,849 
133 ITAMassimo DonatiITATacconi Sport06:41:01  +  00:40:32=29,849 
134 ITAAndrea BrognaraITAAlessio06:41:01  +  00:40:32=29,849 
135 FRAChristophe AgnoluttoFRAAg2r Prevoyance06:41:01  +  00:40:32=29,849 
136 FRACyril DesselFRAJean Delatour06:41:01  +  00:40:32=29,849 
137 NEDLeon van BonBELDomo-Farm Frites06:41:01  +  00:40:32=29,849 
138 ITAMassimo ApollonioITATacconi Sport06:41:01  +  00:40:32=29,849 
139 ESPJosé GarciaESPibanesto.com06:41:01  +  00:40:32=29,849 
140 ITADavide CasarottoITAAlessio06:41:01  +  00:40:32=29,849 
141 AUTPeter LuttenbergerITATacconi Sport06:41:01  +  00:40:32=29,849 
142 MLTDavid MillarFRACofidis Credit Par Telephone06:41:01  +  00:40:32=29,849 
143 AUSBaden CookeFRAfdjeux.com06:41:01  +  00:40:32=29,849 
144 SUIThierry LoderFRAAg2r Prevoyance06:41:01  +  00:40:32=29,849 
145 UKRSerhiy HoncharITAFassa Bortolo06:41:01  +  00:40:32=29,849 
146 DENJakob PiilDNKTeam CSC-Tiscali06:41:01  +  00:40:32=29,849 
147 FRADamien NazonFRABonjour06:41:01  +  00:40:32=29,849 
148 COLFred RodriguezBELDomo-Farm Frites06:41:01  +  00:40:32=29,849 
149 FRAChristophe EdaleineFRAJean Delatour06:41:01  +  00:40:32=29,849 
150 ESPGorka ArrizabalagaESPEuskaltel - Euskadi06:41:01  +  00:40:32=29,849 
151 FRAFrédéric GuesdonFRAfdjeux.com06:41:01  +  00:40:32=29,849 
152 BELSerge BaguetBELLotto-Adecco06:41:01  +  00:40:32=29,849 
153 NEDBram de GrootNLDRabobank06:41:01  +  00:40:32=29,849 
154 FRAPatrice HalgandFRAJean Delatour06:41:01  +  00:40:32=29,849 
155 FRASandy CasarFRAfdjeux.com06:41:01  +  00:40:32=29,849 
156 FRAEddy SeigneurFRAJean Delatour06:41:01  +  00:40:32=29,849 
157 NEDErik DekkerNLDRabobank06:41:01  +  00:40:32=29,849 
158 SUIRubens BertogliatiITALampre-Daikin06:41:01  +  00:40:32=29,849 
159 FRAJimmy CasperFRAfdjeux.com06:41:01  +  00:40:32=29,849 
160 ITAGian Matteo FagniniUSATeam Telekom06:41:01  +  00:40:32=29,849 
161 URSArvis PiziksDNKTeam CSC-Tiscali06:41:01  +  00:40:32=29,849 
162 NEDKarsten KroonNLDRabobank06:41:50  +  00:41:21=29,788 
163 FRAStéphane BergesFRAAg2r Prevoyance06:42:27  +  00:41:58=29,743 
164 SLOMartin HvastijaITAAlessio06:42:27  +  00:41:58=29,743 
165 BELHans De ClercqBELLotto-Adecco06:44:10  +  00:43:41=29,616 
166 ESPIgor Flores GalarzaESPEuskaltel - Euskadi06:44:20  +  00:43:51=29,604 

Withdrawls: 10
 
Rider
Team
Reason
37  ESPAntonio TaulerESPKelme-Costa BlancaDid not finish
88  ITAOscar PozziITAFassa BortoloDid not finish
119  FRAFrançois SimonFRABonjourExceeded time limit
123  BELFabien De WaeleITAMapei-Quick StepDid not finish
156  BRALuciano PagliariniITALampre-DaikinDid not start
165  ESPGorka GonzalezESPEuskaltel - EuskadiExceeded time limit
168  ESPSamuel SanchezESPEuskaltel - EuskadiExceeded time limit
176  SLOAndrei HauptmanITATacconi SportDid not finish
193  ITAStefano CasagrandaITAAlessioDid not finish
197  MDARuslan IvanovITAAlessioDid not finish

Todays birthdays.

1887  Donald Kirkham
1889  Théodore Abada
1911  Guillaume Chavard
1912  Jean Fontenay
1913  Fabien Galateau
1930  Roger Hassenforder
1930  Richard Van Genechten
1936  Philippe Gaudrillet
1937  Joseph Novales
1954  Hans-Peter Jakst
1960  Manuel Ramos
1973  David Etxebarria
1974  Rik Verbrugghe
1976  Jörg Jaksche




Visits: